Αρχική σελίδα
METAR-TAF:

METAR-TAF

Αεροδρόμια :

El Oued, Αλγερία

γεωγραφικό πλάτος: 33-30-47N, γεωγραφικό μήκος: 006-46-57E, υψόμετρο: 62 μ

Παρών καιρός

Η αναφορά έγινε 39 λεπτά πριν, στις 23:00 UTC
Άνεμος 9 kt από Ν
Θερμοκρασία 40°C
Υγρασία 15%
Πίεση 1007 hPa
Ορατότητα: 5000 μ
Λίγα νέφη σε ύψος 4000 πόδια

METAR: DAUO 222300Z 19009KT 5000 FEW040 40/08 Q1007

Χρόνος: 00:39 (23:39 UTC)

Πρόγνωση Καιρού

Η αναφορά έγινε 3 ώρες και 39 λεπτά πριν, στις 20:00 UTC
Η πρόγνωση ισχύει από τις 22 στις 21 UTC έως τις 23 στις 06 UTC
Άνεμος 12 kt από ΝΔ
Ορατότητα: 7000 μ
Λίγα νέφη σε ύψος 4000 πόδια
Διάσπαρτα νέφη σε ύψος 10000 πόδια
Προσωρινά
από 22 στις 21 UTC έως τις 22 στις 24 UTC
Ορατότητα: 5000 μ
καταχνιά

TAF: DAUO 222000Z 2221/2306 22012KT 7000 FEW040 SCT100 TEMPO 2221/2224 5000 HZ

Μετεωρολογικές αναφορές και προγνώσεις για περισσότερα από 4000 αεροδρόμια (δελτία METAR και TAF).

Οι διαθέσιμοι σταθμοί απεικονίζονται στο χάρτη με κίτρινες και κόκκινες κουκκίδες.

Μετακινήστε το ποντίκι πάνω από τις κουκκίδες για να δείτε το όνομα του σταθμού.

Στη συνέχεια, κάντε κλικ για να δείτε τις μετεωρολογικές αναφορές και τις προγνώσεις καιρού.

Για να αλλάξετε το χάρτη: κάντε κλικ στα πράσινα κουμπιά με τον μαύρο σταυρό για να ζουμάρετε, στο πράσινο κουμπί με την παύλα για να αφαιρέσετε το ζουμ ή στα πράσινα βέλη για να αντιπαραβάλλετε χάρτες.


METAR-TAF: